Αρχική σελίδα
METAR-TAF:

METAR-TAF

Αεροδρόμια :

North Platte, Νεμπράσκα, Ηνωμένες Πολιτείες Αμερικής

γεωγραφικό πλάτος: 41-07-19N, γεωγραφικό μήκος: 100-40-06W, υψόμετρο: 846 μ

Παρών καιρός

Η αναφορά έγινε 27 λεπτά πριν, στις 12:53 UTC
Άνεμος 4 kt από Β
Θερμοκρασία -8°C
Υγρασία 92%
Πίεση 1025 hPa
Ορατότητα: 16.1 χλμ
Καθαρός ουρανός

METAR: KLBF 161253Z AUTO 35004KT 10SM CLR M08/M09 A3028 RMK AO2 SLP288 T10781089

Χρόνος: 07:20 (13:20 UTC)

Πρόγνωση Καιρού

Η αναφορά έγινε 1 ώρα και 45 λεπτά πριν, στις 11:35 UTC
Η πρόγνωση ισχύει από τις 16 στις 12 UTC έως τις 17 στις 12 UTC
Άνεμος 3 kt από μεταβλητές κατευθύνσεις
Ορατότητα: 10 χλμ
Καθαρός ουρανός

TAF: KLBF 161135Z 1612/1712 VRB03KT P6SM SKC

Μετεωρολογικές αναφορές και προγνώσεις για περισσότερα από 4000 αεροδρόμια (δελτία METAR και TAF).

Οι διαθέσιμοι σταθμοί απεικονίζονται στο χάρτη με κίτρινες και κόκκινες κουκκίδες.

Μετακινήστε το ποντίκι πάνω από τις κουκκίδες για να δείτε το όνομα του σταθμού.

Στη συνέχεια, κάντε κλικ για να δείτε τις μετεωρολογικές αναφορές και τις προγνώσεις καιρού.

Για να αλλάξετε το χάρτη: κάντε κλικ στα πράσινα κουμπιά με τον μαύρο σταυρό για να ζουμάρετε, στο πράσινο κουμπί με την παύλα για να αφαιρέσετε το ζουμ ή στα πράσινα βέλη για να αντιπαραβάλλετε χάρτες.


METAR-TAF: